Time;durP1;ratioP1;P1;durP2;ratioP2;P2;SDS_P1;SDS_P2;PMS_P1;PMS_P2;Temp;Humidity;BMP_temperature;BMP_pressure;BME280_temperature;BME280_humidity;BME280_pressure;Samples;Min_cycle;Max_cycle;Signal;HPM_P1;HPM_P2
2021/01/30 00:00:23;;;;;;;33.35;18.75;;;5.10;99.90;;;;;;5026004;28;20401;-75
2021/01/30 00:02:50;;;;;;;26.83;15.00;;;5.00;99.90;;;;;;5012374;28;20063;-73
2021/01/30 00:05:16;;;;;;;23.67;14.85;;;5.00;99.90;;;;;;5028871;28;20159;-75
2021/01/30 00:07:43;;;;;;;15.68;10.13;;;4.90;99.90;;;;;;5029757;28;20577;-74
2021/01/30 00:10:10;;;;;;;18.73;13.18;;;4.70;99.90;;;;;;5053971;28;20408;-74
2021/01/30 00:12:36;;;;;;;22.20;14.48;;;4.60;99.90;;;;;;5045906;28;20041;-74
2021/01/30 00:15:04;;;;;;;20.42;13.25;;;4.50;99.90;;;;;;5028232;28;20660;-74
2021/01/30 00:17:30;;;;;;;24.55;15.00;;;4.40;99.90;;;;;;5046324;28;20427;-73
2021/01/30 00:19:57;;;;;;;29.65;16.55;;;4.40;99.90;;;;;;5045908;28;20148;-74
2021/01/30 00:22:24;;;;;;;30.95;17.05;;;4.30;99.90;;;;;;5045692;28;20076;-73
2021/01/30 00:24:51;;;;;;;33.25;17.10;;;4.10;99.90;;;;;;5012582;28;20041;-73
2021/01/30 00:27:20;;;;;;;42.70;20.40;;;4.00;99.90;;;;;;5028425;28;20057;-75
2021/01/30 00:29:48;;;;;;;36.30;17.05;;;4.00;99.90;;;;;;5049256;28;20052;-74
2021/01/30 00:32:17;;;;;;;40.08;19.40;;;3.90;99.90;;;;;;5065512;28;20131;-75
2021/01/30 00:34:44;;;;;;;48.35;21.15;;;3.90;99.90;;;;;;5046730;28;20059;-74
2021/01/30 00:37:23;;;;;;;48.38;20.30;;;3.90;99.90;;;;;;5028650;28;20156;-74
2021/01/30 00:39:51;;;;;;;53.35;22.13;;;3.80;99.90;;;;;;5020228;28;20053;-74
2021/01/30 00:42:19;;;;;;;23.45;12.35;;;3.80;99.90;;;;;;5035717;28;20106;-74
2021/01/30 00:44:46;;;;;;;27.45;14.75;;;3.60;99.90;;;;;;5029155;28;20368;-74
2021/01/30 00:47:13;;;;;;;28.50;13.60;;;3.40;99.90;;;;;;5045613;28;20510;-74
2021/01/30 00:49:41;;;;;;;22.30;12.23;;;3.20;99.90;;;;;;5041468;28;20057;-75
2021/01/30 00:52:09;;;;;;;15.35;8.27;;;3.00;99.90;;;;;;5026042;28;20073;-74
2021/01/30 00:54:36;;;;;;;15.20;7.38;;;2.60;99.90;;;;;;5025269;28;20152;-74
2021/01/30 00:57:03;;;;;;;22.85;12.60;;;2.50;99.90;;;;;;5064293;28;20052;-74
2021/01/30 00:59:30;;;;;;;18.77;9.88;;;2.30;99.90;;;;;;5048769;28;20139;-74
2021/01/30 01:01:56;;;;;;;22.75;11.45;;;2.10;99.90;;;;;;5028380;28;20137;-75
2021/01/30 01:04:31;;;;;;;;;;;2.00;99.90;;;;;;5028087;28;20068;-74
2021/01/30 01:06:58;;;;;;;19.73;8.27;;;1.80;99.90;;;;;;5044764;28;19920;-74
2021/01/30 01:09:24;;;;;;;12.55;6.65;;;1.80;99.90;;;;;;5044528;28;20076;-74
2021/01/30 01:11:52;;;;;;;8.75;5.55;;;1.70;99.90;;;;;;5036907;28;20215;-74
2021/01/30 01:14:22;;;;;;;14.38;7.25;;;1.40;99.90;;;;;;5063914;28;20052;-75
2021/01/30 01:16:48;;;;;;;14.48;8.23;;;1.30;99.90;;;;;;5046941;28;20136;-74
2021/01/30 01:19:15;;;;;;;13.48;8.18;;;1.30;99.90;;;;;;5054104;28;20067;-73
2021/01/30 01:21:42;;;;;;;11.80;7.45;;;1.10;99.90;;;;;;5027997;28;20053;-74
2021/01/30 01:24:08;;;;;;;21.63;9.90;;;0.90;99.90;;;;;;5044716;28;20056;-74
2021/01/30 01:26:35;;;;;;;17.92;9.45;;;0.80;99.90;;;;;;5027030;28;20061;-74
2021/01/30 01:29:01;;;;;;;14.63;7.80;;;0.80;99.90;;;;;;5035565;28;20079;-74
2021/01/30 01:31:28;;;;;;;13.60;8.30;;;0.80;99.90;;;;;;5027906;28;20122;-74
2021/01/30 01:33:54;;;;;;;16.70;9.18;;;0.60;99.90;;;;;;5043596;28;20126;-73
2021/01/30 01:36:21;;;;;;;16.67;9.90;;;0.60;99.90;;;;;;5030560;28;20049;-74
2021/01/30 01:38:49;;;;;;;23.15;11.63;;;0.60;99.90;;;;;;5043549;28;20110;-74
2021/01/30 01:41:17;;;;;;;22.88;12.05;;;0.70;99.90;;;;;;5051837;28;20114;-74
2021/01/30 01:43:44;;;;;;;20.25;11.38;;;0.70;99.90;;;;;;5065800;28;20087;-73
2021/01/30 01:46:10;;;;;;;21.25;12.48;;;0.70;99.90;;;;;;5033662;28;20068;-74
2021/01/30 01:49:02;;;;;;;24.65;13.77;;;0.60;99.90;;;;;;5044480;28;20144;-74
2021/01/30 01:52:07;;;;;;;28.05;15.20;;;0.40;99.90;;;;;;5022256;28;20065;-74
2021/01/30 01:54:35;;;;;;;27.15;15.25;;;0.40;99.90;;;;;;5022526;28;20131;-74
2021/01/30 01:57:20;;;;;;;30.02;16.80;;;0.30;99.90;;;;;;5043875;28;20053;-72
2021/01/30 01:59:52;;;;;;;27.10;14.95;;;0.30;99.90;;;;;;5011067;28;20107;-74
2021/01/30 02:02:19;;;;;;;19.52;11.77;;;0.20;99.90;;;;;;5006581;28;20138;-74
2021/01/30 02:04:54;;;;;;;25.08;15.13;;;0.10;99.90;;;;;;5024059;28;20523;-74
2021/01/30 02:07:20;;;;;;;;;;;0.10;99.90;;;;;;5007679;28;20045;-74
2021/01/30 02:09:47;;;;;;;27.23;16.52;;;0.00;99.90;;;;;;5045766;28;19982;-74
2021/01/30 02:12:14;;;;;;;26.42;15.70;;;-0.10;99.90;;;;;;5045084;28;20041;-73
2021/01/30 02:14:46;;;;;;;28.65;17.50;;;-0.10;99.90;;;;;;5042660;28;20051;-74
2021/01/30 02:17:52;;;;;;;30.33;18.23;;;-0.20;99.90;;;;;;5025367;28;20555;-74
2021/01/30 02:20:53;;;;;;;26.92;16.38;;;-0.20;99.90;;;;;;5010490;28;20046;-74
2021/01/30 02:24:16;;;;;;;25.95;15.35;;;-0.30;99.90;;;;;;5025066;28;20048;-75
2021/01/30 02:27:27;;;;;;;29.00;16.88;;;-0.30;99.90;;;;;;4939691;28;20058;-74
2021/01/30 02:30:01;;;;;;;28.42;16.63;;;-0.40;99.90;;;;;;4923881;28;20145;-74
2021/01/30 02:32:39;;;;;;;31.10;18.98;;;-0.50;99.90;;;;;;4993223;28;20567;-74
2021/01/30 02:35:20;;;;;;;33.45;19.60;;;-0.50;99.90;;;;;;4991028;28;20067;-74
2021/01/30 02:38:00;;;;;;;32.92;20.55;;;-0.60;99.90;;;;;;5032552;28;20554;-74
2021/01/30 02:40:33;;;;;;;23.30;15.05;;;-0.50;99.90;;;;;;5027581;28;20152;-74
2021/01/30 02:43:05;;;;;;;29.42;18.48;;;-0.60;99.90;;;;;;5043910;28;20401;-74
2021/01/30 02:45:37;;;;;;;25.83;15.32;;;-0.60;99.90;;;;;;5017710;28;20106;-74
2021/01/30 02:48:05;;;;;;;19.95;14.00;;;-0.60;99.90;;;;;;5024097;28;20107;-74
2021/01/30 02:50:44;;;;;;;27.40;16.67;;;-0.70;99.90;;;;;;5041444;28;20057;-74
2021/01/30 02:53:18;;;;;;;25.42;16.10;;;-0.70;99.90;;;;;;5041827;28;20081;-73
2021/01/30 02:55:47;;;;;;;25.73;16.60;;;-0.70;99.90;;;;;;5042373;28;20438;-74
2021/01/30 02:58:17;;;;;;;20.50;14.05;;;-0.70;99.90;;;;;;5029508;28;20767;-73
2021/01/30 03:00:46;;;;;;;28.25;17.95;;;-0.70;99.90;;;;;;5046467;28;20522;-74
2021/01/30 03:03:13;;;;;;;22.30;14.25;;;-0.70;99.90;;;;;;5048876;28;20507;-74
2021/01/30 03:05:43;;;;;;;22.55;15.32;;;-0.70;99.90;;;;;;5029776;28;20132;-74
2021/01/30 03:08:20;;;;;;;23.40;15.82;;;-0.70;99.90;;;;;;5033234;28;20085;-75
2021/01/30 03:11:14;;;;;;;25.38;15.90;;;-0.70;99.90;;;;;;5058105;28;20130;-75
2021/01/30 03:13:51;;;;;;;26.33;15.95;;;-0.70;99.90;;;;;;5050293;28;20234;-74
2021/01/30 03:16:21;;;;;;;23.45;14.93;;;-0.70;99.90;;;;;;5042210;28;20084;-74
2021/01/30 03:19:13;;;;;;;23.58;14.88;;;-0.70;99.90;;;;;;5055344;28;20055;-74
2021/01/30 03:21:42;;;;;;;18.90;13.35;;;-0.60;99.90;;;;;;5013830;28;20145;-75
2021/01/30 03:24:09;;;;;;;19.00;12.95;;;-0.60;99.90;;;;;;5030016;28;20045;-74
2021/01/30 03:26:42;;;;;;;14.20;10.23;;;-0.70;99.90;;;;;;5028402;28;20076;-74
2021/01/30 03:29:11;;;;;;;17.45;11.38;;;-0.70;99.90;;;;;;5046343;28;20075;-74
2021/01/30 03:31:38;;;;;;;16.50;11.50;;;-0.70;99.90;;;;;;5052981;28;20045;-75
2021/01/30 03:34:07;;;;;;;14.55;10.98;;;-0.80;99.90;;;;;;5032255;28;20049;-74
2021/01/30 03:36:33;;;;;;;16.75;12.13;;;-0.80;99.90;;;;;;5009825;28;20061;-74
2021/01/30 03:39:00;;;;;;;14.30;12.15;;;-0.80;99.90;;;;;;5043557;28;20056;-74
2021/01/30 03:41:27;;;;;;;15.23;11.52;;;-0.90;99.90;;;;;;5058153;28;20052;-74
2021/01/30 03:43:54;;;;;;;14.90;11.35;;;-0.80;99.90;;;;;;5037478;28;20048;-74
2021/01/30 03:46:20;;;;;;;14.40;11.27;;;-0.80;99.90;;;;;;5046392;28;20052;-75
2021/01/30 03:48:47;;;;;;;16.60;11.50;;;-0.80;99.90;;;;;;5029916;28;20243;-74
2021/01/30 03:51:13;;;;;;;13.32;10.73;;;-0.70;99.90;;;;;;5013277;28;20539;-74
2021/01/30 03:53:39;;;;;;;12.63;10.20;;;-0.70;99.90;;;;;;5029424;28;20045;-74
2021/01/30 03:56:06;;;;;;;11.00;9.45;;;-0.70;99.90;;;;;;5012741;28;20059;-74
2021/01/30 03:58:32;;;;;;;9.10;8.20;;;-0.70;99.90;;;;;;5030317;28;20215;-74
2021/01/30 04:00:59;;;;;;;10.77;9.60;;;-0.80;99.90;;;;;;5029115;28;20052;-74
2021/01/30 04:03:25;;;;;;;11.20;10.10;;;-0.80;99.90;;;;;;5028605;28;20512;-74
2021/01/30 04:05:52;;;;;;;9.90;8.90;;;-0.70;99.90;;;;;;5047416;28;20530;-73
2021/01/30 04:08:18;;;;;;;12.77;11.00;;;-0.70;99.90;;;;;;5032518;28;20068;-74
2021/01/30 04:10:45;;;;;;;11.70;10.57;;;-0.70;99.90;;;;;;5056973;28;20059;-73
2021/01/30 04:13:12;;;;;;;12.40;10.90;;;-0.70;99.90;;;;;;5030112;28;20064;-73
2021/01/30 04:15:41;;;;;;;11.55;10.45;;;-0.80;99.90;;;;;;5044402;28;20206;-74
2021/01/30 04:18:09;;;;;;;13.65;12.35;;;-0.80;99.90;;;;;;5047512;28;20080;-74
2021/01/30 04:20:36;;;;;;;14.05;12.65;;;-0.70;99.90;;;;;;5045660;28;20064;-74
2021/01/30 04:23:03;;;;;;;16.92;15.13;;;-0.80;99.90;;;;;;4995422;28;20112;-73
2021/01/30 04:25:30;;;;;;;16.00;14.45;;;-0.90;99.90;;;;;;5024718;28;20061;-73
2021/01/30 04:27:57;;;;;;;19.15;15.68;;;-0.90;99.90;;;;;;5038601;28;20049;-73
2021/01/30 04:30:27;;;;;;;15.55;13.90;;;-0.90;99.90;;;;;;5055547;28;20052;-73
2021/01/30 04:32:55;;;;;;;18.42;14.95;;;-0.90;99.90;;;;;;5045763;28;20145;-73
2021/01/30 04:35:31;;;;;;;16.95;14.98;;;-0.80;99.90;;;;;;5012093;28;20559;-74
2021/01/30 04:37:58;;;;;;;19.65;16.40;;;-0.80;99.90;;;;;;5028744;28;20045;-71
2021/01/30 04:40:33;;;;;;;15.43;13.82;;;-0.80;99.90;;;;;;5039860;28;20040;-74
2021/01/30 04:43:15;;;;;;;16.33;14.52;;;-0.90;99.90;;;;;;5049270;28;20060;-73
2021/01/30 04:46:10;;;;;;;14.73;13.18;;;-0.90;99.90;;;;;;5021979;28;20515;-73
2021/01/30 04:49:00;;;;;;;16.98;14.32;;;-0.90;99.90;;;;;;5047300;28;20088;-73
2021/01/30 04:51:35;;;;;;;19.33;15.45;;;-0.90;99.90;;;;;;5046049;28;20049;-73
2021/01/30 04:54:29;;;;;;;18.08;14.07;;;-0.80;99.90;;;;;;5044937;28;20637;-74
2021/01/30 04:57:18;;;;;;;18.48;15.25;;;-0.80;99.90;;;;;;5045262;28;20060;-74
2021/01/30 05:00:22;;;;;;;18.83;13.98;;;-0.70;99.90;;;;;;5029509;28;20542;-73
2021/01/30 05:03:09;;;;;;;20.77;17.27;;;-0.90;99.90;;;;;;5025884;28;20499;-74
2021/01/30 05:05:38;;;;;;;19.90;17.73;;;-1.00;99.90;;;;;;5024672;28;20640;-73
2021/01/30 05:08:27;;;;;;;20.88;17.92;;;-0.90;99.90;;;;;;5009231;28;20048;-72
2021/01/30 05:11:02;;;;;;;26.45;20.10;;;-0.90;99.90;;;;;;5048797;28;20052;-72
2021/01/30 05:13:40;;;;;;;;;;;-0.90;99.90;;;;;;5027965;28;20057;-72
2021/01/30 05:16:23;;;;;;;24.25;19.52;;;-0.90;99.90;;;;;;5027105;28;20008;-73
2021/01/30 05:18:58;;;;;;;22.50;17.58;;;-0.90;99.90;;;;;;5044283;28;20048;-73
2021/01/30 05:21:33;;;;;;;25.00;20.25;;;-0.90;99.90;;;;;;5032513;28;20075;-73
2021/01/30 05:24:00;;;;;;;23.48;19.30;;;-0.80;99.90;;;;;;5064748;28;20537;-73
2021/01/30 05:26:54;;;;;;;20.20;18.00;;;-0.70;99.90;;;;;;5047523;28;20052;-73
2021/01/30 05:29:41;;;;;;;21.85;19.50;;;-0.70;99.90;;;;;;5034200;28;20076;-72
2021/01/30 05:32:26;;;;;;;23.83;19.13;;;-0.80;99.90;;;;;;5044705;28;20059;-73
2021/01/30 05:35:02;;;;;;;21.10;17.25;;;-0.90;99.90;;;;;;5044418;28;20083;-71
2021/01/30 05:37:38;;;;;;;20.77;17.77;;;-0.90;99.90;;;;;;5011392;28;20140;-73
2021/01/30 05:40:27;;;;;;;21.88;16.63;;;-0.90;99.90;;;;;;5032682;28;20089;-73
2021/01/30 05:43:24;;;;;;;21.30;16.73;;;-0.90;99.90;;;;;;5059400;28;20052;-72
2021/01/30 05:45:56;;;;;;;23.25;19.10;;;-0.90;99.90;;;;;;5026904;28;20044;-72
2021/01/30 05:48:35;;;;;;;20.50;16.60;;;-0.90;99.90;;;;;;5027671;28;20107;-72
2021/01/30 05:51:15;;;;;;;20.08;16.70;;;-0.90;99.90;;;;;;5044190;28;20076;-72
2021/01/30 05:53:43;;;;;;;21.77;17.50;;;-0.80;99.90;;;;;;5003677;28;20475;-73
2021/01/30 05:56:10;;;;;;;18.67;15.60;;;-0.70;99.90;;;;;;5006979;28;20081;-73
2021/01/30 05:58:43;;;;;;;17.30;15.52;;;-0.80;99.90;;;;;;4997332;28;20060;-73
2021/01/30 06:01:15;;;;;;;17.75;15.95;;;-0.80;99.90;;;;;;5044180;28;20049;-72
2021/01/30 06:03:59;;;;;;;20.13;17.17;;;-0.90;99.90;;;;;;5027637;28;20504;-73
2021/01/30 06:06:35;;;;;;;19.55;17.38;;;-0.80;99.90;;;;;;5042535;28;20096;-72
2021/01/30 06:09:11;;;;;;;20.70;16.52;;;-0.80;99.90;;;;;;5031800;28;20060;-72
2021/01/30 06:11:48;;;;;;;19.75;16.40;;;-0.90;99.90;;;;;;5057311;28;20048;-72
2021/01/30 06:14:35;;;;;;;22.02;17.88;;;-0.80;99.90;;;;;;5047197;28;20048;-72
2021/01/30 06:17:02;;;;;;;21.38;17.08;;;-0.90;99.90;;;;;;5019977;28;20045;-72
2021/01/30 06:19:34;;;;;;;17.58;15.20;;;-1.00;99.90;;;;;;5024181;28;20053;-73
2021/01/30 06:22:22;;;;;;;18.27;16.23;;;-1.00;99.90;;;;;;5025390;28;20064;-73
2021/01/30 06:24:49;;;;;;;18.48;16.58;;;-0.90;99.90;;;;;;5037366;28;20048;-72
2021/01/30 06:27:29;;;;;;;17.70;15.82;;;-0.90;99.90;;;;;;5041546;28;20128;-72
2021/01/30 06:30:01;;;;;;;18.17;15.25;;;-0.80;99.90;;;;;;5049421;28;20461;-73
2021/01/30 06:32:34;;;;;;;20.13;16.70;;;-0.90;99.90;;;;;;5047170;28;20507;-73
2021/01/30 06:35:19;;;;;;;16.33;14.20;;;-0.70;99.90;;;;;;5031587;28;20049;-72
2021/01/30 06:37:51;;;;;;;16.65;13.10;;;-0.90;99.90;;;;;;5047951;28;20061;-72
2021/01/30 06:40:28;;;;;;;17.23;14.43;;;-1.00;99.90;;;;;;5026282;28;20049;-73
2021/01/30 06:43:09;;;;;;;14.38;12.85;;;-1.00;99.90;;;;;;5043336;28;20301;-70
2021/01/30 06:45:45;;;;;;;17.98;14.95;;;-1.00;99.90;;;;;;5020880;28;20543;-72
2021/01/30 06:48:32;;;;;;;22.55;15.38;;;-1.10;99.90;;;;;;4996931;28;20064;-72
2021/01/30 06:50:59;;;;;;;14.45;12.30;;;-1.00;99.90;;;;;;5013996;28;20158;-72
2021/01/30 06:53:32;;;;;;;14.77;13.18;;;-1.10;99.90;;;;;;5047562;28;20059;-72
2021/01/30 06:56:16;;;;;;;15.57;12.82;;;-1.10;99.90;;;;;;5028822;28;20076;-72
2021/01/30 06:58:44;;;;;;;18.65;14.07;;;-1.10;99.90;;;;;;5040312;28;20148;-72
2021/01/30 07:01:21;;;;;;;16.88;14.18;;;-1.00;99.90;;;;;;5009807;28;20049;-72
2021/01/30 07:04:15;;;;;;;18.92;14.70;;;-1.00;99.90;;;;;;5027973;28;20056;-72
2021/01/30 07:07:00;;;;;;;19.65;13.43;;;-1.00;99.90;;;;;;5026435;28;20061;-72
2021/01/30 07:09:38;;;;;;;20.03;13.37;;;-1.20;99.90;;;;;;5027840;28;20496;-72
2021/01/30 07:12:33;;;;;;;18.70;12.43;;;-1.20;99.90;;;;;;5043853;28;20284;-72
2021/01/30 07:15:32;;;;;;;23.15;14.23;;;-1.10;99.90;;;;;;5009966;28;20609;-72
2021/01/30 07:18:11;;;;;;;24.15;15.25;;;-1.20;99.90;;;;;;5020256;28;20049;-72
2021/01/30 07:20:56;;;;;;;24.60;14.65;;;-1.20;99.90;;;;;;5045174;28;20071;-72
2021/01/30 07:23:38;;;;;;;24.73;14.48;;;-1.20;99.90;;;;;;5031777;28;20037;-73
2021/01/30 07:26:18;;;;;;;26.55;16.58;;;-1.10;99.90;;;;;;5039396;28;20122;-72
2021/01/30 07:29:00;;;;;;;27.85;16.60;;;-0.90;99.90;;;;;;5040011;28;20059;-72
2021/01/30 07:31:33;;;;;;;21.95;13.90;;;-1.00;99.90;;;;;;5040496;28;20096;-71
2021/01/30 07:34:13;;;;;;;29.52;16.52;;;-1.00;99.90;;;;;;5030878;28;20067;-72
2021/01/30 07:36:58;;;;;;;27.88;16.73;;;-0.90;99.90;;;;;;5046844;28;20048;-73
2021/01/30 07:39:50;;;;;;;28.77;17.75;;;-0.90;99.90;;;;;;5031664;28;20115;-72
2021/01/30 07:42:26;;;;;;;27.60;17.15;;;-0.90;99.90;;;;;;5031043;28;20061;-72
2021/01/30 07:45:33;;;;;;;26.60;16.67;;;-0.80;99.90;;;;;;5044043;28;20045;-71
2021/01/30 07:48:20;;;;;;;27.80;16.98;;;-0.90;99.90;;;;;;5043528;28;20054;-73
2021/01/30 07:50:56;;;;;;;27.02;16.73;;;-1.00;99.90;;;;;;5009687;28;20533;-72
2021/01/30 07:53:25;;;;;;;21.85;15.48;;;-0.90;99.90;;;;;;5009914;28;20052;-73
2021/01/30 07:56:06;;;;;;;21.90;15.13;;;-0.90;99.90;;;;;;5029818;28;20143;-71
2021/01/30 07:58:55;;;;;;;18.30;13.90;;;-0.90;99.90;;;;;;5029971;28;20048;-73
2021/01/30 08:01:27;;;;;;;21.42;13.77;;;-0.80;99.90;;;;;;5043568;28;20049;-72
2021/01/30 08:04:10;;;;;;;18.90;14.40;;;-0.80;99.90;;;;;;5029985;28;20045;-72
2021/01/30 08:06:55;;;;;;;19.65;14.57;;;-0.80;99.90;;;;;;5028555;28;20164;-73
2021/01/30 08:09:34;;;;;;;21.20;15.15;;;-0.80;99.90;;;;;;5037974;28;20048;-73
2021/01/30 08:12:14;;;;;;;20.85;15.00;;;-0.80;99.90;;;;;;5029257;28;20072;-70
2021/01/30 08:15:07;;;;;;;21.65;15.50;;;-0.80;99.90;;;;;;5029613;28;20064;-70
2021/01/30 08:17:59;;;;;;;20.83;15.27;;;-0.80;99.90;;;;;;5047782;28;20053;-73
2021/01/30 08:20:38;;;;;;;20.63;15.10;;;-0.90;99.90;;;;;;5022493;28;20147;-72
2021/01/30 08:23:17;;;;;;;20.70;14.80;;;-0.90;99.90;;;;;;5025798;28;20140;-72
2021/01/30 08:25:51;;;;;;;24.25;16.38;;;-0.70;99.90;;;;;;5049010;28;20049;-73
2021/01/30 08:28:26;;;;;;;32.28;17.05;;;-0.80;99.90;;;;;;5045336;28;20533;-72
2021/01/30 08:30:54;;;;;;;23.08;16.13;;;-0.80;99.90;;;;;;5051145;28;20446;-73
2021/01/30 08:33:21;;;;;;;23.00;17.42;;;-0.90;99.90;;;;;;5053576;28;20040;-72
2021/01/30 08:35:57;;;;;;;23.95;16.60;;;-0.70;99.90;;;;;;5051694;28;20476;-73
2021/01/30 08:38:23;;;;;;;19.00;15.43;;;-0.60;99.90;;;;;;5019091;28;20052;-73
2021/01/30 08:40:55;;;;;;;24.40;17.67;;;-0.60;99.90;;;;;;5038502;28;20215;-73
2021/01/30 08:43:40;;;;;;;22.77;17.58;;;-0.50;99.90;;;;;;5055353;28;20041;-73
2021/01/30 08:46:20;;;;;;;25.27;17.60;;;-0.50;99.90;;;;;;5030120;28;20152;-73
2021/01/30 08:49:19;;;;;;;21.83;17.52;;;-0.60;99.90;;;;;;5053676;28;20064;-72
2021/01/30 08:52:06;;;;;;;18.67;14.02;;;-0.50;99.90;;;;;;5025326;28;20077;-74
2021/01/30 08:54:37;;;;;;;21.70;16.35;;;-0.40;99.90;;;;;;5027289;28;20095;-73
2021/01/30 08:57:06;;;;;;;20.15;16.35;;;-0.40;99.90;;;;;;5025485;28;20128;-72
2021/01/30 08:59:48;;;;;;;22.65;16.88;;;-0.50;99.90;;;;;;5031926;28;20143;-73
2021/01/30 09:02:27;;;;;;;20.02;15.98;;;-0.50;99.90;;;;;;5043948;28;20164;-72
2021/01/30 09:05:09;;;;;;;21.63;15.43;;;-0.50;99.90;;;;;;5054169;28;20058;-73
2021/01/30 09:07:48;;;;;;;19.58;15.13;;;-0.50;99.90;;;;;;5047209;28;20083;-73
2021/01/30 09:10:29;;;;;;;21.20;15.38;;;-0.50;99.90;;;;;;5033315;28;20052;-72
2021/01/30 09:13:13;;;;;;;18.23;14.05;;;-0.50;99.90;;;;;;5020965;28;20073;-73
2021/01/30 09:15:42;;;;;;;18.42;13.48;;;-0.50;99.90;;;;;;5053004;28;20059;-73
2021/01/30 09:18:22;;;;;;;17.58;14.77;;;-0.70;99.90;;;;;;5047392;28;20053;-72
2021/01/30 09:20:58;;;;;;;17.98;14.93;;;-0.70;99.90;;;;;;5038184;28;20046;-74
2021/01/30 09:23:43;;;;;;;16.88;14.73;;;-0.80;99.90;;;;;;5023735;28;20037;-73
2021/01/30 09:26:26;;;;;;;17.15;14.38;;;-0.70;99.90;;;;;;5065221;28;20068;-72
2021/01/30 09:28:59;;;;;;;18.27;14.40;;;-0.60;99.90;;;;;;5038699;28;20041;-74
2021/01/30 09:31:26;;;;;;;17.00;14.05;;;-0.70;99.90;;;;;;5007398;28;20095;-73
2021/01/30 09:34:17;;;;;;;18.85;14.77;;;-0.60;99.90;;;;;;5045447;28;20049;-74
2021/01/30 09:36:49;;;;;;;16.67;14.13;;;-0.40;99.90;;;;;;5029441;28;20057;-74
2021/01/30 09:39:30;;;;;;;15.55;14.00;;;-0.20;99.90;;;;;;5011333;28;20132;-73
2021/01/30 09:42:10;;;;;;;17.50;15.75;;;-0.10;99.90;;;;;;5034953;28;20384;-74
2021/01/30 09:44:37;;;;;;;17.30;15.68;;;0.10;99.90;;;;;;5009019;28;20053;-74
2021/01/30 09:47:10;;;;;;;18.33;16.42;;;0.00;99.90;;;;;;5026726;28;20072;-74
2021/01/30 09:49:43;;;;;;;19.58;17.52;;;0.20;99.90;;;;;;5036573;28;20053;-74
2021/01/30 09:52:12;;;;;;;18.40;16.23;;;0.10;99.90;;;;;;5024231;28;20056;-74
2021/01/30 09:54:38;;;;;;;23.23;17.15;;;0.20;99.90;;;;;;5024763;28;20042;-74
2021/01/30 09:57:08;;;;;;;16.38;14.65;;;0.20;99.90;;;;;;5024384;28;20089;-73
2021/01/30 09:59:35;;;;;;;16.75;15.05;;;0.20;99.90;;;;;;5017343;28;20053;-73
2021/01/30 10:02:17;;;;;;;16.90;15.10;;;0.10;99.90;;;;;;5059955;28;20648;-74
2021/01/30 10:04:44;;;;;;;17.77;15.95;;;0.10;99.90;;;;;;5033541;28;20049;-74
2021/01/30 10:07:17;;;;;;;16.52;14.85;;;0.20;99.90;;;;;;5026519;28;20534;-74
2021/01/30 10:09:45;;;;;;;14.38;13.02;;;0.30;99.90;;;;;;5040384;28;20061;-73
2021/01/30 10:12:16;;;;;;;18.30;15.90;;;0.20;99.90;;;;;;5019113;28;20504;-73
2021/01/30 10:14:49;;;;;;;18.40;16.80;;;0.20;99.90;;;;;;5027632;28;20045;-74
2021/01/30 10:17:31;;;;;;;17.38;15.90;;;0.10;99.90;;;;;;5026708;28;20063;-72
2021/01/30 10:20:04;;;;;;;19.25;17.55;;;0.10;99.90;;;;;;5039195;28;20056;-73
2021/01/30 10:22:39;;;;;;;18.02;16.23;;;0.00;99.90;;;;;;5043547;28;20052;-72
2021/01/30 10:25:16;;;;;;;19.80;18.00;;;0.10;99.90;;;;;;5042632;28;20056;-73
2021/01/30 10:27:43;;;;;;;20.27;18.20;;;0.20;99.90;;;;;;5049303;28;20052;-73
2021/01/30 10:30:13;;;;;;;18.45;16.95;;;0.20;99.90;;;;;;5011110;28;20052;-73
2021/01/30 10:32:50;;;;;;;19.52;17.85;;;0.20;99.90;;;;;;5034190;28;20060;-73
2021/01/30 10:35:34;;;;;;;19.52;17.83;;;0.30;99.90;;;;;;5029288;28;20136;-74
2021/01/30 10:38:08;;;;;;;17.73;16.15;;;0.30;99.90;;;;;;5026110;28;20049;-73
2021/01/30 10:40:42;;;;;;;19.13;17.48;;;0.40;99.90;;;;;;5032704;28;20048;-72
2021/01/30 10:43:21;;;;;;;18.20;16.63;;;0.20;99.90;;;;;;5027025;28;20499;-73
2021/01/30 10:45:55;;;;;;;19.88;18.02;;;0.30;99.90;;;;;;5016357;28;20296;-73
2021/01/30 10:48:24;;;;;;;18.90;17.20;;;0.40;99.90;;;;;;5017501;28;20443;-75
2021/01/30 10:50:51;;;;;;;18.67;17.15;;;0.30;99.90;;;;;;5025303;28;20206;-74
2021/01/30 10:53:37;;;;;;;18.92;17.48;;;0.20;99.90;;;;;;5042637;28;20044;-73
2021/01/30 10:56:15;;;;;;;20.15;18.05;;;0.10;99.90;;;;;;5020260;28;20128;-73
2021/01/30 10:58:42;;;;;;;17.85;16.27;;;0.10;99.90;;;;;;5010299;28;20052;-73
2021/01/30 11:01:10;;;;;;;18.13;16.52;;;0.20;99.90;;;;;;5023958;28;20073;-74
2021/01/30 11:03:48;;;;;;;20.10;18.10;;;0.20;99.90;;;;;;5051027;28;20053;-73
2021/01/30 11:06:16;;;;;;;17.92;16.35;;;0.20;99.90;;;;;;5064364;28;20720;-72
2021/01/30 11:08:43;;;;;;;20.00;17.77;;;0.20;99.90;;;;;;5029852;28;20502;-73
2021/01/30 11:11:12;;;;;;;17.60;16.20;;;0.10;99.90;;;;;;5026220;28;20075;-73
2021/01/30 11:13:40;;;;;;;19.70;17.95;;;0.30;99.90;;;;;;5030893;28;20403;-73
2021/01/30 11:16:29;;;;;;;17.77;16.38;;;0.30;99.90;;;;;;5025754;28;20049;-72
2021/01/30 11:18:56;;;;;;;15.68;14.38;;;0.30;99.90;;;;;;5010866;28;20077;-72
2021/01/30 11:21:31;;;;;;;19.10;17.42;;;0.20;99.90;;;;;;5009918;28;20049;-73
2021/01/30 11:24:13;;;;;;;17.40;16.10;;;0.10;99.90;;;;;;5027106;28;20053;-72
2021/01/30 11:26:41;;;;;;;20.00;18.17;;;0.20;99.90;;;;;;5039047;28;20146;-72
2021/01/30 11:29:34;;;;;;;19.33;17.45;;;0.30;99.90;;;;;;5058499;28;20063;-73
2021/01/30 11:32:03;;;;;;;19.17;17.50;;;0.30;99.90;;;;;;5057533;28;20037;-73
2021/01/30 11:34:30;;;;;;;19.52;17.83;;;0.30;99.90;;;;;;5009447;28;20056;-73
2021/01/30 11:36:57;;;;;;;19.17;17.52;;;0.30;99.90;;;;;;5009252;28;20426;-73
2021/01/30 11:39:32;;;;;;;18.13;16.63;;;0.40;99.90;;;;;;5044669;28;20542;-73
2021/01/30 11:41:59;;;;;;;17.27;16.08;;;0.20;99.90;;;;;;5035843;28;20059;-73
2021/01/30 11:44:27;;;;;;;17.42;16.23;;;0.10;99.90;;;;;;5009842;28;20137;-73
2021/01/30 11:46:54;;;;;;;15.43;14.40;;;0.10;99.90;;;;;;5046343;28;20049;-72
2021/01/30 11:49:21;;;;;;;18.15;16.83;;;0.00;99.90;;;;;;5013064;28;20063;-72
2021/01/30 11:51:49;;;;;;;18.90;17.45;;;0.10;99.90;;;;;;5012034;28;20053;-73
2021/01/30 11:54:16;;;;;;;17.45;16.13;;;0.20;99.90;;;;;;5008679;28;20045;-73
2021/01/30 11:56:44;;;;;;;16.83;15.55;;;0.30;99.90;;;;;;5009742;28;20763;-73
2021/01/30 11:59:12;;;;;;;17.23;15.88;;;0.30;99.90;;;;;;5038942;28;20053;-73
2021/01/30 12:01:39;;;;;;;16.92;15.77;;;0.20;99.90;;;;;;5028940;28;20127;-73
2021/01/30 12:04:08;;;;;;;18.10;16.80;;;0.50;99.90;;;;;;5028970;28;20076;-73
2021/01/30 12:06:35;;;;;;;17.15;16.00;;;0.50;99.90;;;;;;5040388;28;20064;-73
2021/01/30 12:09:02;;;;;;;17.95;16.65;;;0.30;99.90;;;;;;5044458;28;20076;-73
2021/01/30 12:11:29;;;;;;;16.58;15.60;;;0.30;99.90;;;;;;5040026;28;20091;-73
2021/01/30 12:13:56;;;;;;;16.83;15.60;;;0.20;99.90;;;;;;5025204;28;20057;-74
2021/01/30 12:16:25;;;;;;;17.70;16.42;;;0.20;99.90;;;;;;5026588;28;20053;-73
2021/01/30 12:18:53;;;;;;;20.23;18.60;;;0.30;99.90;;;;;;5044093;28;20140;-73
2021/01/30 12:21:19;;;;;;;18.90;17.40;;;0.30;99.90;;;;;;5014597;28;20090;-73
2021/01/30 12:23:45;;;;;;;17.52;16.23;;;0.20;99.90;;;;;;5021888;28;20053;-72
2021/01/30 12:26:19;;;;;;;20.42;18.92;;;0.30;99.90;;;;;;5013486;28;20037;-73
2021/01/30 12:28:46;;;;;;;20.73;19.08;;;0.30;99.90;;;;;;5032714;28;20515;-73
2021/01/30 12:31:13;;;;;;;27.88;25.27;;;0.30;99.90;;;;;;5018406;28;20095;-73
2021/01/30 12:33:39;;;;;;;21.02;19.42;;;0.50;99.90;;;;;;5052606;28;20076;-73
2021/01/30 12:36:07;;;;;;;19.95;18.38;;;0.30;99.90;;;;;;5028626;28;20415;-72
2021/01/30 12:38:34;;;;;;;19.65;18.02;;;0.30;99.90;;;;;;5042260;28;20175;-73
2021/01/30 12:41:02;;;;;;;19.65;18.25;;;0.30;99.90;;;;;;5019725;28;20048;-73
2021/01/30 12:43:28;;;;;;;19.20;17.73;;;0.30;99.90;;;;;;5032299;28;20056;-73
2021/01/30 12:45:55;;;;;;;20.83;19.08;;;0.30;99.90;;;;;;5036102;28;20500;-73
2021/01/30 12:48:22;;;;;;;18.13;16.65;;;0.40;99.90;;;;;;5044257;28;20484;-73
2021/01/30 12:50:48;;;;;;;22.10;20.15;;;0.50;99.90;;;;;;5039680;28;20045;-74
2021/01/30 12:53:15;;;;;;;21.77;20.10;;;0.30;99.90;;;;;;5045769;28;20507;-71
2021/01/30 12:55:41;;;;;;;21.17;19.40;;;0.40;99.90;;;;;;5020589;28;20065;-73
2021/01/30 12:58:27;;;;;;;22.00;20.13;;;0.30;99.90;;;;;;5006890;28;20671;-75
2021/01/30 13:00:54;;;;;;;;;;;0.50;99.90;;;;;;5028684;28;20049;-72
2021/01/30 13:03:23;;;;;;;22.52;20.80;;;0.70;99.90;;;;;;5027598;28;19921;-71
2021/01/30 13:05:51;;;;;;;23.15;21.13;;;0.50;99.90;;;;;;5027248;28;20480;-72
2021/01/30 13:08:19;;;;;;;21.65;19.95;;;0.50;99.90;;;;;;5037887;28;20132;-71